createdAt,value
2023-03-12T04:00:17.240Z,4.80
2023-03-12T04:02:49.953Z,5.27
2023-03-12T04:05:20.811Z,4.33
2023-03-12T04:07:52.653Z,4.60
2023-03-12T04:10:25.241Z,4.30
2023-03-12T04:12:53.797Z,4.40
2023-03-12T04:15:21.949Z,4.80
2023-03-12T04:17:52.168Z,4.53
2023-03-12T04:20:21.262Z,4.83
2023-03-12T04:22:49.325Z,4.83
2023-03-12T04:25:18.472Z,4.57
2023-03-12T04:27:46.375Z,5.37
2023-03-12T04:30:15.454Z,6.03
2023-03-12T04:32:44.888Z,5.10
2023-03-12T04:35:15.057Z,4.67
2023-03-12T04:37:43.393Z,4.30
2023-03-12T04:40:15.265Z,4.70
2023-03-12T04:42:43.232Z,4.03
2023-03-12T04:45:12.623Z,3.53
2023-03-12T04:47:45.141Z,2.93
2023-03-12T04:50:15.098Z,2.93
2023-03-12T04:52:43.452Z,2.93
2023-03-12T04:55:12.496Z,2.70
2023-03-12T04:57:40.821Z,2.87
2023-03-12T05:00:13.046Z,2.90
2023-03-12T05:02:41.576Z,2.80
2023-03-12T05:05:12.335Z,3.17
2023-03-12T05:07:42.481Z,3.10
2023-03-12T05:10:11.359Z,3.23
2023-03-12T05:12:39.780Z,3.77
2023-03-12T05:15:09.112Z,3.77
2023-03-12T05:17:37.337Z,3.67
2023-03-12T05:20:07.022Z,3.70
2023-03-12T05:22:34.962Z,4.10
2023-03-12T05:25:04.770Z,4.50
2023-03-12T05:27:32.985Z,4.47
2023-03-12T05:30:01.172Z,6.80
2023-03-12T05:32:29.089Z,6.23
2023-03-12T05:34:57.152Z,4.80
2023-03-12T05:37:25.495Z,4.70
2023-03-12T05:39:54.954Z,5.07
2023-03-12T05:42:25.730Z,5.00
2023-03-12T05:44:53.647Z,5.10
2023-03-12T05:47:23.615Z,5.17
2023-03-12T05:49:52.000Z,4.60
2023-03-12T05:52:20.098Z,4.70
2023-03-12T05:54:48.076Z,5.07
2023-03-12T05:57:15.965Z,5.73
2023-03-12T05:59:45.128Z,5.57
2023-03-12T06:02:13.099Z,5.93
2023-03-12T06:04:41.425Z,5.77
2023-03-12T06:07:09.398Z,6.63
2023-03-12T06:09:37.822Z,6.40
2023-03-12T06:12:06.672Z,5.87
2023-03-12T06:14:35.199Z,5.80
2023-03-12T06:17:04.736Z,5.90
2023-03-12T06:19:32.622Z,6.27
2023-03-12T06:22:00.469Z,5.67
2023-03-12T06:24:29.048Z,6.13
2023-03-12T06:27:03.505Z,6.17
2023-03-12T06:29:31.337Z,5.80
2023-03-12T06:31:59.551Z,5.60
2023-03-12T06:34:28.735Z,5.70
2023-03-12T06:36:56.698Z,5.60
2023-03-12T06:39:26.044Z,5.80
2023-03-12T06:41:54.051Z,5.37
2023-03-12T06:44:22.073Z,5.67
2023-03-12T06:46:50.176Z,5.37
2023-03-12T06:49:18.053Z,5.93
2023-03-12T06:51:47.259Z,5.53
2023-03-12T06:54:15.154Z,5.93
2023-03-12T06:56:43.410Z,6.03
2023-03-12T06:59:11.239Z,6.40
2023-03-12T07:01:39.076Z,5.77
2023-03-12T07:04:07.005Z,6.00
2023-03-12T07:06:35.287Z,5.93
2023-03-12T07:09:04.932Z,6.27
2023-03-12T07:11:32.810Z,5.83
2023-03-12T07:14:00.679Z,6.20
2023-03-12T07:16:30.155Z,6.13
2023-03-12T07:18:58.964Z,6.50
2023-03-12T07:21:27.008Z,5.43
2023-03-12T07:23:55.026Z,6.03
2023-03-12T07:26:24.542Z,6.60
2023-03-12T07:28:52.355Z,6.13
2023-03-12T07:31:20.249Z,6.37
2023-03-12T07:33:48.249Z,6.47
2023-03-12T07:36:16.245Z,6.10
2023-03-12T07:38:44.127Z,6.40
2023-03-12T07:41:12.088Z,6.47
2023-03-12T07:43:41.570Z,6.67
2023-03-12T07:46:10.118Z,6.90
2023-03-12T07:48:38.599Z,6.33
2023-03-12T07:51:07.433Z,6.20
2023-03-12T07:53:35.478Z,6.07
2023-03-12T07:56:03.403Z,6.67
2023-03-12T07:58:32.662Z,6.20
2023-03-12T08:01:01.992Z,6.70
2023-03-12T08:03:30.668Z,6.50
2023-03-12T08:06:00.442Z,6.37
2023-03-12T08:08:29.332Z,6.00
2023-03-12T08:10:57.481Z,6.60
2023-03-12T08:13:26.027Z,6.20
2023-03-12T08:15:55.227Z,6.17
2023-03-12T08:18:25.563Z,6.90
2023-03-12T08:20:53.840Z,6.97
2023-03-12T08:23:22.786Z,7.27
2023-03-12T08:25:51.382Z,6.90
2023-03-12T08:28:20.046Z,7.10
2023-03-12T08:30:49.016Z,7.03
2023-03-12T08:33:17.409Z,7.40
2023-03-12T08:35:49.557Z,7.20
2023-03-12T08:38:17.437Z,7.03
2023-03-12T08:40:45.511Z,7.20
2023-03-12T08:43:13.505Z,7.60
2023-03-12T08:45:41.429Z,8.00
2023-03-12T08:48:09.319Z,8.23
2023-03-12T08:50:37.152Z,7.90
2023-03-12T08:53:07.189Z,7.60
2023-03-12T08:55:35.147Z,7.33
2023-03-12T08:58:02.988Z,8.47
2023-03-12T09:00:30.988Z,8.20
2023-03-12T09:02:59.105Z,8.57
2023-03-12T09:05:29.925Z,8.20
2023-03-12T09:07:57.844Z,8.60
2023-03-12T09:10:30.690Z,9.27
2023-03-12T09:12:58.892Z,8.70
2023-03-12T09:15:27.269Z,9.00
2023-03-12T09:17:55.759Z,9.27
2023-03-12T09:20:24.686Z,8.60
2023-03-12T09:22:52.524Z,9.70
2023-03-12T09:25:21.119Z,9.20
2023-03-12T09:27:50.480Z,9.57
2023-03-12T09:30:20.248Z,9.93
2023-03-12T09:32:48.748Z,9.70
2023-03-12T09:35:17.150Z,9.37
2023-03-12T09:37:48.526Z,10.67
2023-03-12T09:40:19.596Z,11.70
2023-03-12T09:42:52.954Z,10.00
2023-03-12T09:45:23.237Z,9.77
2023-03-12T09:47:52.808Z,17.03
2023-03-12T09:50:29.358Z,12.70
2023-03-12T09:53:01.986Z,15.00
2023-03-12T09:55:36.303Z,12.93
2023-03-12T09:58:05.474Z,12.40
2023-03-12T10:00:36.957Z,11.73
2023-03-12T10:03:35.459Z,11.37
2023-03-12T10:06:12.097Z,10.80
2023-03-12T10:08:51.525Z,11.47
2023-03-12T10:11:28.804Z,10.97
2023-03-12T10:14:23.044Z,9.97
2023-03-12T10:17:00.753Z,10.53
2023-03-12T10:19:44.689Z,11.23
2023-03-12T10:22:22.216Z,10.50
2023-03-12T10:25:00.547Z,11.20
2023-03-12T10:27:31.147Z,11.23
2023-03-12T10:30:01.956Z,11.77
2023-03-12T10:32:38.945Z,11.67
2023-03-12T10:35:15.747Z,11.17
2023-03-12T10:37:46.240Z,12.37
2023-03-12T10:40:16.719Z,13.13
2023-03-12T10:42:44.766Z,13.23
2023-03-12T10:45:24.747Z,12.77
2023-03-12T10:47:57.299Z,12.03
2023-03-12T10:50:26.596Z,11.80
2023-03-12T10:53:17.959Z,12.47
2023-03-12T10:56:00.499Z,12.00
2023-03-12T10:58:33.712Z,13.67
2023-03-12T11:01:05.645Z,12.60
2023-03-12T11:03:33.905Z,13.17
2023-03-12T11:06:02.816Z,11.87
2023-03-12T11:08:32.360Z,11.50
2023-03-12T11:11:01.459Z,10.87
2023-03-12T11:13:31.942Z,11.57
2023-03-12T11:16:03.047Z,11.53
2023-03-12T11:18:36.084Z,11.93
2023-03-12T11:21:16.991Z,11.23
2023-03-12T11:23:48.213Z,10.37
2023-03-12T11:26:19.998Z,10.87
2023-03-12T11:28:50.027Z,10.33
2023-03-12T11:31:26.167Z,10.70
2023-03-12T11:33:58.565Z,10.10
2023-03-12T11:36:41.011Z,10.07
2023-03-12T11:39:18.777Z,8.50
2023-03-12T11:42:03.510Z,9.50
2023-03-12T11:44:38.983Z,10.00
2023-03-12T11:47:28.242Z,9.17
2023-03-12T11:50:16.176Z,9.13
2023-03-12T11:52:56.838Z,9.60
2023-03-12T11:55:39.268Z,9.40
2023-03-12T11:58:26.677Z,9.53
2023-03-12T12:01:01.353Z,9.68
2023-03-12T12:04:00.342Z,9.13
2023-03-12T12:06:37.884Z,9.47
2023-03-12T12:09:18.491Z,8.00
2023-03-12T12:11:56.454Z,8.55
2023-03-12T12:14:38.899Z,9.17
2023-03-12T12:17:18.125Z,8.45
2023-03-12T12:20:12.881Z,7.37
2023-03-12T12:22:53.840Z,7.63
2023-03-12T12:25:31.065Z,7.70
2023-03-12T12:28:09.978Z,8.38
2023-03-12T12:30:54.865Z,8.20
2023-03-12T12:33:34.312Z,8.10
2023-03-12T12:36:03.985Z,7.88
2023-03-12T12:38:36.388Z,7.90
2023-03-12T12:41:10.958Z,8.20
2023-03-12T12:43:40.323Z,7.63
2023-03-12T12:46:13.487Z,7.93
2023-03-12T12:48:45.272Z,8.52
2023-03-12T12:51:17.525Z,7.60
2023-03-12T12:53:50.599Z,6.75
2023-03-12T12:56:24.580Z,7.30
2023-03-12T12:59:06.818Z,7.93
2023-03-12T13:01:37.217Z,7.82
2023-03-12T13:04:08.137Z,8.23
2023-03-12T13:06:59.506Z,7.22
2023-03-12T13:09:43.360Z,7.90
2023-03-12T13:12:16.518Z,7.68
2023-03-12T13:14:46.255Z,8.25
2023-03-12T13:17:58.106Z,8.20
2023-03-12T13:20:32.531Z,7.93
2023-03-12T13:23:29.417Z,7.85
2023-03-12T13:26:04.316Z,8.40
2023-03-12T13:28:41.965Z,8.20
2023-03-12T13:31:41.723Z,7.68
2023-03-12T13:34:45.551Z,8.52
2023-03-12T13:37:30.851Z,8.10
2023-03-12T13:40:07.884Z,8.85
2023-03-12T13:42:42.859Z,8.15
2023-03-12T13:45:26.389Z,8.27
2023-03-12T13:47:59.119Z,8.02
2023-03-12T13:50:29.149Z,8.85
2023-03-12T13:53:04.751Z,8.60
2023-03-12T13:55:35.936Z,8.48
2023-03-12T13:58:10.130Z,8.43
2023-03-12T14:00:41.585Z,8.05
2023-03-12T14:03:16.556Z,8.13
2023-03-12T14:05:53.176Z,9.10
2023-03-12T14:08:40.974Z,8.70
2023-03-12T14:11:24.810Z,9.30
2023-03-12T14:14:19.570Z,8.70
2023-03-12T14:16:49.882Z,8.68
2023-03-12T14:19:21.372Z,9.35
2023-03-12T14:21:51.799Z,9.60
2023-03-12T14:24:26.136Z,9.73
2023-03-12T14:26:55.962Z,9.52
2023-03-12T14:29:29.019Z,8.85
2023-03-12T14:31:59.969Z,9.00
2023-03-12T14:34:29.709Z,8.95
2023-03-12T14:37:01.801Z,8.43
2023-03-12T14:39:33.968Z,8.98
2023-03-12T14:42:05.511Z,9.25
2023-03-12T14:44:35.248Z,9.32
2023-03-12T14:47:07.430Z,8.60
2023-03-12T14:49:42.249Z,8.95
2023-03-12T14:52:12.957Z,8.77
2023-03-12T14:54:41.084Z,8.63
2023-03-12T14:57:19.946Z,7.95
2023-03-12T14:59:54.364Z,7.97
2023-03-12T15:02:23.428Z,8.50
2023-03-12T15:04:55.187Z,9.27
2023-03-12T15:07:27.922Z,8.70
2023-03-12T15:09:56.230Z,8.52
2023-03-12T15:12:27.910Z,8.57
2023-03-12T15:15:02.555Z,8.98
2023-03-12T15:17:32.438Z,8.95
2023-03-12T15:20:02.641Z,8.75
2023-03-12T15:22:30.617Z,8.90
2023-03-12T15:25:03.097Z,9.18
2023-03-12T15:27:35.379Z,8.45
2023-03-12T15:30:03.995Z,8.95
2023-03-12T15:32:32.026Z,8.70
2023-03-12T15:35:00.577Z,8.57
2023-03-12T15:37:35.190Z,9.68
2023-03-12T15:40:06.828Z,9.25
2023-03-12T15:42:42.052Z,9.13
2023-03-12T15:45:19.424Z,9.45
2023-03-12T15:47:48.211Z,9.70
2023-03-12T15:50:21.954Z,8.93
2023-03-12T15:53:05.696Z,9.43
2023-03-12T15:55:35.697Z,8.95
2023-03-12T15:58:27.423Z,9.85
2023-03-12T16:00:55.568Z,9.25
2023-03-12T16:03:23.667Z,9.25
2023-03-12T16:05:52.281Z,9.23
2023-03-12T16:08:25.805Z,9.73
2023-03-12T16:10:55.405Z,9.77
2023-03-12T16:13:31.565Z,9.32
2023-03-12T16:15:59.965Z,9.70
2023-03-12T16:18:27.882Z,9.88
2023-03-12T16:20:56.185Z,9.95
2023-03-12T16:23:24.230Z,10.02
2023-03-12T16:25:55.639Z,10.00
2023-03-12T16:28:25.697Z,11.13
2023-03-12T16:30:55.202Z,9.68
2023-03-12T16:33:24.869Z,10.10
2023-03-12T16:35:53.208Z,10.32
2023-03-12T16:38:21.806Z,9.98
2023-03-12T16:40:51.700Z,10.43
2023-03-12T16:43:20.994Z,10.57
2023-03-12T16:45:50.106Z,10.40
2023-03-12T16:48:21.588Z,10.63
2023-03-12T16:50:51.205Z,10.88
2023-03-12T16:53:19.217Z,11.95
2023-03-12T16:55:50.397Z,13.98
2023-03-12T16:58:20.794Z,13.80
2023-03-12T17:00:49.479Z,13.93
2023-03-12T17:03:22.597Z,15.80
2023-03-12T17:05:50.534Z,15.80
2023-03-12T17:08:18.760Z,16.13
2023-03-12T17:10:46.791Z,14.20
2023-03-12T17:13:19.895Z,14.02
2023-03-12T17:15:48.057Z,14.25
2023-03-12T17:18:16.378Z,12.05
2023-03-12T17:20:46.390Z,12.35
2023-03-12T17:23:14.933Z,12.20
2023-03-12T17:25:44.654Z,12.35
2023-03-12T17:28:13.764Z,13.60
2023-03-12T17:30:42.016Z,25.00
2023-03-12T17:33:12.242Z,18.15
2023-03-12T17:35:40.756Z,16.08
2023-03-12T17:38:10.155Z,17.92
2023-03-12T17:40:41.216Z,13.60
2023-03-12T17:43:09.045Z,16.58
2023-03-12T17:45:37.506Z,16.42
2023-03-12T17:48:05.802Z,15.13
2023-03-12T17:50:33.830Z,14.23
2023-03-12T17:53:01.654Z,12.65
2023-03-12T17:55:30.976Z,11.40
2023-03-12T17:57:58.873Z,11.52
2023-03-12T18:00:27.781Z,11.32
2023-03-12T18:02:55.718Z,11.35
2023-03-12T18:05:23.640Z,12.77
2023-03-12T18:07:52.038Z,12.20
2023-03-12T18:10:20.347Z,10.98
2023-03-12T18:12:50.886Z,12.68
2023-03-12T18:15:19.977Z,12.38
2023-03-12T18:17:49.942Z,12.98
2023-03-12T18:20:28.738Z,12.85
2023-03-12T18:23:00.253Z,13.00
2023-03-12T18:25:29.154Z,13.52
2023-03-12T18:27:58.418Z,12.07
2023-03-12T18:30:28.138Z,12.77
2023-03-12T18:32:56.065Z,12.13
2023-03-12T18:35:28.638Z,12.43
2023-03-12T18:37:56.701Z,11.27
2023-03-12T18:40:24.841Z,12.38
2023-03-12T18:42:52.708Z,11.27
2023-03-12T18:45:21.902Z,11.65
2023-03-12T18:47:50.845Z,13.63
2023-03-12T18:50:19.007Z,12.52
2023-03-12T18:52:46.855Z,12.52
2023-03-12T18:55:16.106Z,13.27
2023-03-12T18:57:44.218Z,13.32
2023-03-12T19:00:14.842Z,13.90
2023-03-12T19:02:46.526Z,13.73
2023-03-12T19:05:15.547Z,14.20
2023-03-12T19:07:43.911Z,13.98
2023-03-12T19:10:13.426Z,13.88
2023-03-12T19:12:56.374Z,14.18
2023-03-12T19:15:24.895Z,12.93
2023-03-12T19:17:54.593Z,14.95
2023-03-12T19:20:22.589Z,13.38
2023-03-12T19:22:50.820Z,12.15
2023-03-12T19:25:20.299Z,12.30
2023-03-12T19:27:48.419Z,11.52
2023-03-12T19:30:17.081Z,11.40
2023-03-12T19:32:45.051Z,11.10
2023-03-12T19:35:15.575Z,11.23
2023-03-12T19:37:43.768Z,10.70
2023-03-12T19:40:13.215Z,10.43
2023-03-12T19:42:41.160Z,10.30
2023-03-12T19:45:10.209Z,9.93
2023-03-12T19:47:38.130Z,10.10
2023-03-12T19:50:07.028Z,9.93
2023-03-12T19:52:36.245Z,9.85
2023-03-12T19:55:05.682Z,10.45
2023-03-12T19:57:33.958Z,10.20
2023-03-12T20:00:01.856Z,10.07
2023-03-12T20:02:32.340Z,9.57
2023-03-12T20:05:00.253Z,9.85
2023-03-12T20:07:28.114Z,9.23
2023-03-12T20:09:57.347Z,9.55
2023-03-12T20:12:25.536Z,9.57
2023-03-12T20:14:53.408Z,9.60
2023-03-12T20:17:21.271Z,9.85
2023-03-12T20:19:49.126Z,9.63
2023-03-12T20:22:19.494Z,9.45
2023-03-12T20:24:47.355Z,9.95
2023-03-12T20:27:16.705Z,9.27
2023-03-12T20:29:46.092Z,9.88
2023-03-12T20:32:14.076Z,9.77
2023-03-12T20:34:42.064Z,10.35
2023-03-12T20:37:09.951Z,10.35
2023-03-12T20:39:38.077Z,11.88
2023-03-12T20:42:07.145Z,11.80
2023-03-12T20:44:36.378Z,12.45
2023-03-12T20:47:04.367Z,12.40
2023-03-12T20:49:33.516Z,12.02
2023-03-12T20:52:02.075Z,11.35
2023-03-12T20:54:30.149Z,11.70
2023-03-12T20:56:58.738Z,12.30
2023-03-12T20:59:26.694Z,13.30
2023-03-12T21:01:56.938Z,12.80
2023-03-12T21:04:24.772Z,12.10
2023-03-12T21:06:52.637Z,11.82
2023-03-12T21:09:22.627Z,11.30
2023-03-12T21:11:50.602Z,11.40
2023-03-12T21:14:18.473Z,11.48
2023-03-12T21:16:46.432Z,11.38
2023-03-12T21:19:15.653Z,11.27
2023-03-12T21:21:43.558Z,11.70
2023-03-12T21:24:11.471Z,12.70
2023-03-12T21:26:39.339Z,11.13
2023-03-12T21:29:07.191Z,10.07
2023-03-12T21:31:35.297Z,10.80
2023-03-12T21:34:03.149Z,10.63
2023-03-12T21:36:32.964Z,10.45
2023-03-12T21:39:01.852Z,10.20
2023-03-12T21:41:29.928Z,9.75
2023-03-12T21:44:02.211Z,10.05
2023-03-12T21:46:30.601Z,9.23
2023-03-12T21:48:59.506Z,10.32
2023-03-12T21:51:27.620Z,11.30
2023-03-12T21:53:58.370Z,10.83
2023-03-12T21:56:28.101Z,10.82
2023-03-12T21:58:57.161Z,10.47
2023-03-12T22:01:25.809Z,10.57
2023-03-12T22:03:54.221Z,9.27
2023-03-12T22:06:22.469Z,9.57
2023-03-12T22:08:52.118Z,8.93
2023-03-12T22:11:21.526Z,9.05
2023-03-12T22:13:49.733Z,9.25
2023-03-12T22:16:17.830Z,9.30
2023-03-12T22:18:47.664Z,9.03
2023-03-12T22:21:17.822Z,9.40
2023-03-12T22:23:47.728Z,9.63
2023-03-12T22:26:15.699Z,9.10
2023-03-12T22:28:49.246Z,9.73
2023-03-12T22:31:17.158Z,9.20
2023-03-12T22:33:45.708Z,9.60
2023-03-12T22:36:15.699Z,9.90
2023-03-12T22:38:43.648Z,10.30
2023-03-12T22:41:19.704Z,10.50
2023-03-12T22:43:50.244Z,11.15
2023-03-12T22:46:19.588Z,9.98
2023-03-12T22:48:48.597Z,10.20
2023-03-12T22:51:16.418Z,10.45
2023-03-12T22:53:44.241Z,9.10
2023-03-12T22:56:13.898Z,10.07
2023-03-12T22:58:42.354Z,9.32
